Time;durP1;ratioP1;P1;durP2;ratioP2;P2;SDS_P1;SDS_P2;PMS_P1;PMS_P2;Temp;Humidity;BMP_temperature;BMP_pressure;BME280_temperature;BME280_humidity;BME280_pressure;Samples;Min_cycle;Max_cycle;Signal;HPM_P1;HPM_P2
2022/05/11 00:01:43;;;;;;;6.47;5.50;;;;;;;13.36;70.03;95241.84;5116012;28;20242;-66
2022/05/11 00:04:11;;;;;;;6.38;5.78;;;;;;;13.29;70.21;95248.09;5116821;28;20188;-66
2022/05/11 00:06:38;;;;;;;7.47;5.20;;;;;;;13.20;70.10;95247.47;5116913;28;20168;-66
2022/05/11 00:09:06;;;;;;;7.85;5.85;;;;;;;13.15;70.53;95247.75;5117318;27;20188;-66
2022/05/11 00:11:34;;;;;;;6.40;5.53;;;;;;;13.14;70.79;95244.16;5116688;28;20188;-66
2022/05/11 00:14:01;;;;;;;6.75;6.13;;;;;;;13.12;70.73;95238.22;5116127;28;20195;-67
2022/05/11 00:16:30;;;;;;;6.47;5.85;;;;;;;13.10;70.67;95229.44;5116965;28;20199;-67
2022/05/11 00:18:57;;;;;;;6.18;5.57;;;;;;;13.10;70.87;95228.66;5116891;28;20188;-66
2022/05/11 00:21:24;;;;;;;6.10;5.50;;;;;;;13.13;70.90;95230.69;5115518;28;20207;-67
2022/05/11 00:23:52;;;;;;;5.95;5.45;;;;;;;13.12;70.57;95227.13;5116825;28;20180;-66
2022/05/11 00:26:22;;;;;;;5.82;5.22;;;;;;;13.05;70.68;95226.19;5116940;28;20179;-66
2022/05/11 00:28:48;;;;;;;5.70;5.20;;;;;;;12.97;71.29;95217.75;5115769;28;20207;-67
2022/05/11 00:31:23;;;;;;;6.07;5.57;;;;;;;12.98;71.27;95215.78;5116604;28;20195;-66
2022/05/11 00:33:56;;;;;;;6.20;5.60;;;;;;;12.90;70.94;95211.25;5115297;28;20523;-67
2022/05/11 00:36:22;;;;;;;5.90;5.40;;;;;;;12.84;70.85;95215.47;5116529;28;20307;-67
2022/05/11 00:38:49;;;;;;;6.78;5.75;;;;;;;12.81;71.09;95211.47;5116539;28;20187;-66
2022/05/11 00:41:16;;;;;;;7.88;5.50;;;;;;;12.83;71.17;95203.59;5116554;28;20184;-67
2022/05/11 00:43:52;;;;;;;5.88;5.38;;;;;;;12.77;70.89;95200.31;5115622;28;20282;-66
2022/05/11 00:46:37;;;;;;;6.22;5.60;;;;;;;12.73;70.94;95199.44;5116309;28;20193;-67
2022/05/11 00:51:56;;;;;;;6.07;5.57;;;;;;;12.65;70.97;95213.50;5115607;28;20192;-66
2022/05/11 00:54:23;;;;;;;6.50;5.30;;;;;;;12.66;71.09;95215.09;5115554;28;20225;-66
2022/05/11 00:56:53;;;;;;;6.40;5.78;;;;;;;12.65;70.97;95219.84;5115496;28;20647;-66
2022/05/11 00:59:23;;;;;;;6.03;5.43;;;;;;;12.61;70.62;95226.47;5116231;28;20180;-66
2022/05/11 01:01:50;;;;;;;5.95;5.40;;;;;;;12.53;70.87;95226.31;5115235;28;20195;-66
2022/05/11 01:04:22;;;;;;;6.30;5.70;;;;;;;12.50;71.05;95218.72;5115874;28;20199;-66
2022/05/11 01:06:49;;;;;;;6.28;5.32;;;;;;;12.53;71.33;95217.22;5115757;28;20176;-67
2022/05/11 01:09:18;;;;;;;6.05;5.55;;;;;;;12.49;70.92;95222.66;5115868;28;20591;-67
2022/05/11 01:11:47;;;;;;;6.30;5.70;;;;;;;12.50;71.15;95227.03;5114773;28;20203;-67
2022/05/11 01:14:15;;;;;;;5.45;4.85;;;;;;;12.49;71.17;95230.13;5114857;28;20199;-66
2022/05/11 01:16:42;;;;;;;5.78;5.25;;;;;;;12.40;70.82;95227.59;5115807;28;20200;-66
2022/05/11 01:19:15;;;;;;;8.85;6.00;;;;;;;12.35;70.98;95233.41;5115619;28;20274;-66
2022/05/11 01:21:48;;;;;;;6.68;5.45;;;;;;;12.35;70.85;95233.41;5115828;28;20531;-66
2022/05/11 01:24:28;;;;;;;6.10;5.50;;;;;;;12.37;71.26;95225.53;5114674;28;20210;-66
2022/05/11 01:26:56;;;;;;;6.30;5.70;;;;;;;12.39;71.60;95227.97;5114907;28;20225;-66
2022/05/11 01:29:23;;;;;;;7.22;5.93;;;;;;;12.42;71.57;95228.03;5114600;28;20199;-66
2022/05/11 01:31:50;;;;;;;6.13;5.63;;;;;;;12.44;71.48;95227.66;5114990;28;20216;-66
2022/05/11 01:34:23;;;;;;;6.43;5.80;;;;;;;12.38;71.89;95224.41;5114669;28;20200;-66
2022/05/11 01:36:52;;;;;;;5.82;5.30;;;;;;;12.41;71.47;95218.13;5116257;28;20536;-66
2022/05/11 01:39:19;;;;;;;5.75;5.18;;;;;;;12.38;71.42;95224.41;5115424;28;20617;-66
2022/05/11 01:41:52;;;;;;;6.18;5.68;;;;;;;12.35;71.49;95225.09;5114329;28;20587;-66
2022/05/11 01:44:20;;;;;;;6.40;5.80;;;;;;;12.32;71.32;95222.25;5114892;28;20196;-66
2022/05/11 01:46:52;;;;;;;6.45;5.85;;;;;;;12.31;70.97;95220.63;5114791;28;20192;-66
2022/05/11 01:49:20;;;;;;;5.93;5.07;;;;;;;12.29;71.00;95226.53;5114472;28;20199;-66
2022/05/11 01:51:47;;;;;;;5.90;5.35;;;;;;;12.26;71.31;95221.72;5115452;28;20196;-66
2022/05/11 01:54:15;;;;;;;5.95;5.45;;;;;;;12.24;71.08;95213.00;5115484;28;20184;-66
2022/05/11 01:56:42;;;;;;;5.95;5.40;;;;;;;12.26;70.80;95219.75;5115925;28;20306;-66
2022/05/11 01:59:10;;;;;;;5.55;5.05;;;;;;;12.24;70.60;95230.41;5114799;28;20196;-66
2022/05/11 02:01:40;;;;;;;5.40;4.88;;;;;;;12.20;70.52;95217.63;5114551;28;20187;-66
2022/05/11 02:07:49;;;;;;;6.65;5.25;;;;;;;12.15;70.45;95224.25;5115596;28;20222;-66
2022/05/11 02:09:40;;;;;;;5.15;4.75;;;;;;;12.08;70.58;95215.78;5114051;28;20532;-66
2022/05/11 02:12:08;;;;;;;5.22;4.82;;;;;;;12.00;70.46;95227.84;5114676;28;20598;-66
2022/05/11 02:14:39;;;;;;;5.88;5.32;;;;;;;11.90;70.33;95212.59;5114486;28;20219;-66
2022/05/11 02:17:06;;;;;;;5.68;4.68;;;;;;;11.82;70.49;95216.31;5114665;28;20247;-66
2022/05/11 02:19:33;;;;;;;5.65;5.15;;;;;;;11.74;71.00;95226.38;5114398;28;20534;-66
2022/05/11 02:22:00;;;;;;;5.93;5.28;;;;;;;11.72;71.32;95227.88;5118102;28;20204;-66
2022/05/11 02:24:27;;;;;;;5.25;4.80;;;;;;;11.71;71.41;95224.31;5117919;28;20199;-66
2022/05/11 02:26:53;;;;;;;5.15;4.60;;;;;;;11.74;71.16;95220.06;5118313;28;20199;-66
2022/05/11 02:29:21;;;;;;;5.70;5.20;;;;;;;11.75;70.85;95218.91;5118211;28;20526;-66
2022/05/11 02:31:51;;;;;;;6.53;4.90;;;;;;;11.68;70.54;95211.22;5117917;28;20676;-66
2022/05/11 02:36:59;;;;;;;7.65;5.40;;;;;;;11.65;71.44;95211.94;5118364;28;20245;-66
2022/05/11 02:39:26;;;;;;;5.95;5.38;;;;;;;11.70;71.36;95214.44;5117875;28;20297;-67
2022/05/11 02:41:54;;;;;;;6.22;5.60;;;;;;;11.72;71.44;95212.09;5118660;28;20180;-67
2022/05/11 02:44:20;;;;;;;7.13;6.43;;;;;;;11.72;71.47;95217.63;5118813;28;20279;-67
2022/05/11 02:46:47;;;;;;;6.20;5.63;;;;;;;11.75;71.92;95213.38;5118834;27;20184;-67
2022/05/11 02:49:18;;;;;;;7.53;5.60;;;;;;;11.70;71.26;95225.50;5117972;28;20572;-67
2022/05/11 02:51:45;;;;;;;7.40;5.72;;;;;;;11.68;71.43;95222.28;5117394;28;20191;-67
2022/05/11 02:54:12;;;;;;;6.07;5.45;;;;;;;11.68;71.60;95222.28;5118603;28;20176;-67
2022/05/11 02:56:39;;;;;;;5.90;5.40;;;;;;;11.73;71.96;95224.00;5117576;28;20636;-68
2022/05/11 02:59:05;;;;;;;7.35;5.53;;;;;;;11.76;71.55;95228.78;5117525;28;20200;-68
2022/05/11 03:01:32;;;;;;;6.60;5.50;;;;;;;11.76;71.60;95226.00;5117426;28;20699;-67
2022/05/11 03:04:04;;;;;;;5.93;5.28;;;;;;;11.76;71.85;95237.06;5118302;28;20192;-67
2022/05/11 03:06:32;;;;;;;6.85;5.72;;;;;;;11.75;71.75;95238.22;5118545;28;20200;-66
2022/05/11 03:09:02;;;;;;;9.77;5.88;;;;;;;11.72;71.41;95238.94;5117954;28;20604;-66
2022/05/11 03:11:29;;;;;;;7.55;5.70;;;;;;;11.68;71.60;95238.84;5116902;28;20184;-66
2022/05/11 03:13:56;;;;;;;7.13;5.80;;;;;;;11.69;71.58;95236.88;5116873;28;20200;-66
2022/05/11 03:16:25;;;;;;;8.52;5.72;;;;;;;11.67;71.73;95242.78;5117050;28;20230;-66
2022/05/11 03:18:52;;;;;;;9.43;5.88;;;;;;;11.68;72.15;95254.63;5117107;28;20216;-66
2022/05/11 03:21:25;;;;;;;6.97;5.60;;;;;;;11.69;72.04;95250.69;5117079;28;20207;-66
2022/05/11 03:23:54;;;;;;;6.90;5.55;;;;;;;11.71;72.09;95254.72;5117863;28;20188;-66
2022/05/11 03:26:21;;;;;;;6.55;5.63;;;;;;;11.70;72.07;95257.84;5116699;28;20187;-66
2022/05/11 03:28:47;;;;;;;9.23;6.93;;;;;;;11.75;72.44;95252.06;5116995;28;20214;-66
2022/05/11 03:31:14;;;;;;;7.32;6.60;;;;;;;11.79;72.49;95261.22;5116813;28;20188;-66
2022/05/11 03:36:26;;;;;;;8.50;6.90;;;;;;;11.86;72.26;95253.16;5116503;28;20212;-67
2022/05/11 03:38:54;;;;;;;8.07;6.47;;;;;;;11.87;71.92;95253.94;5116774;28;20195;-66
2022/05/11 03:41:20;;;;;;;7.10;6.38;;;;;;;11.91;71.50;95246.53;5116504;28;20211;-65
2022/05/11 03:43:47;;;;;;;8.95;6.30;;;;;;;11.94;71.86;95243.88;5117514;28;20187;-68
2022/05/11 03:46:14;;;;;;;7.35;6.60;;;;;;;11.89;71.40;95249.69;5117229;28;20500;-67
2022/05/11 03:48:41;;;;;;;9.32;7.15;;;;;;;11.90;72.06;95254.03;5116284;28;20490;-67
2022/05/11 03:51:10;;;;;;;7.13;6.45;;;;;;;11.87;72.11;95254.75;5117596;28;20184;-67
2022/05/11 03:53:37;;;;;;;7.28;6.30;;;;;;;11.86;72.62;95261.44;5117438;28;20192;-67
2022/05/11 03:56:06;;;;;;;7.28;6.32;;;;;;;11.85;72.28;95256.28;5116862;28;20199;-65
2022/05/11 03:58:33;;;;;;;10.68;6.60;;;;;;;11.79;72.28;95259.28;5116120;28;20199;-64
2022/05/11 04:01:01;;;;;;;9.93;7.05;;;;;;;11.74;72.12;95267.84;5116322;28;20547;-68
2022/05/11 04:03:28;;;;;;;8.02;6.55;;;;;;;11.73;72.51;95270.97;5116423;28;20192;-67
2022/05/11 04:05:55;;;;;;;7.53;6.82;;;;;;;11.70;72.56;95266.94;5116033;28;20596;-66
2022/05/11 04:08:22;;;;;;;9.02;7.60;;;;;;;11.72;72.44;95267.38;5117393;28;20198;-66
2022/05/11 04:10:54;;;;;;;8.02;6.50;;;;;;;11.73;72.36;95268.19;5117122;28;20202;-66
2022/05/11 04:13:22;;;;;;;7.38;6.55;;;;;;;11.76;73.15;95270.22;5115744;28;20642;-66
2022/05/11 04:15:50;;;;;;;9.73;6.70;;;;;;;11.81;72.89;95262.50;5115928;28;20207;-66
2022/05/11 04:18:20;;;;;;;7.28;6.40;;;;;;;11.85;73.00;95276.44;5116053;28;20215;-66
2022/05/11 04:20:47;;;;;;;11.93;6.72;;;;;;;11.90;73.39;95281.69;5115606;28;20248;-66
2022/05/11 04:23:14;;;;;;;7.40;6.65;;;;;;;11.93;73.01;95277.41;5116010;28;20200;-66
2022/05/11 04:25:41;;;;;;;11.88;7.45;;;;;;;11.97;72.67;95290.16;5115749;28;20203;-66
2022/05/11 04:28:13;;;;;;;10.93;9.82;;;;;;;12.01;72.22;95293.81;5115578;28;20206;-66
2022/05/11 04:30:42;;;;;;;14.00;12.63;;;;;;;12.07;72.04;95291.59;5115588;28;20196;-67
2022/05/11 04:33:09;;;;;;;12.35;11.25;;;;;;;12.12;72.31;95288.53;5116593;28;20203;-66
2022/05/11 04:35:36;;;;;;;12.45;11.35;;;;;;;12.14;72.76;95286.22;5116564;28;20198;-66
2022/05/11 04:38:05;;;;;;;12.02;10.82;;;;;;;12.16;72.69;95285.88;5116296;28;20219;-66
2022/05/11 04:40:34;;;;;;;12.27;9.65;;;;;;;12.18;72.59;95294.63;5115438;28;20288;-66
2022/05/11 04:43:06;;;;;;;10.05;8.02;;;;;;;12.18;72.27;95291.84;5115177;28;20196;-66
2022/05/11 04:45:33;;;;;;;8.50;7.32;;;;;;;12.19;72.52;95298.97;5115517;28;20191;-66
2022/05/11 04:48:02;;;;;;;8.07;7.25;;;;;;;12.20;72.85;95303.34;5115450;28;20187;-66
2022/05/11 04:50:29;;;;;;;5.95;5.45;;;;;;;12.24;71.30;95299.53;5115418;28;20200;-66
2022/05/11 04:52:56;;;;;;;6.15;5.65;;;;;;;12.28;71.54;95302.38;5116346;28;20184;-66
2022/05/11 04:55:23;;;;;;;7.25;6.65;;;;;;;12.31;71.63;95304.44;5115286;28;20203;-66
2022/05/11 04:57:50;;;;;;;9.70;7.68;;;;;;;12.34;71.80;95300.94;5115102;28;20226;-66
2022/05/11 05:00:17;;;;;;;10.25;8.05;;;;;;;12.37;71.96;95302.97;5115458;28;20234;-66
2022/05/11 05:02:44;;;;;;;9.82;7.85;;;;;;;12.42;71.68;95310.22;5116061;28;20183;-66
2022/05/11 05:05:12;;;;;;;9.10;7.93;;;;;;;12.44;71.43;95305.13;5116042;28;20187;-66
2022/05/11 05:07:39;;;;;;;9.75;8.13;;;;;;;12.50;71.28;95303.69;5115154;28;20195;-66
2022/05/11 05:10:13;;;;;;;11.35;9.40;;;;;;;12.49;71.95;95310.38;5115245;28;20200;-66
2022/05/11 05:12:40;;;;;;;8.73;6.63;;;;;;;12.50;70.42;95304.50;5115877;28;20187;-66
2022/05/11 05:15:08;;;;;;;7.63;6.28;;;;;;;12.55;69.51;95306.16;5116096;28;20192;-66
2022/05/11 05:17:38;;;;;;;5.63;5.00;;;;;;;12.59;68.47;95309.81;5115628;28;20215;-66
2022/05/11 05:20:07;;;;;;;6.53;5.28;;;;;;;12.62;68.94;95311.88;5115230;28;20282;-66
2022/05/11 05:22:35;;;;;;;5.50;5.05;;;;;;;12.65;70.03;95321.44;5114863;28;20195;-66
2022/05/11 05:25:02;;;;;;;6.05;5.25;;;;;;;12.64;70.23;95309.56;5114741;28;20595;-66
2022/05/11 05:27:31;;;;;;;5.50;5.00;;;;;;;12.65;67.66;95313.13;5114969;28;20207;-67
2022/05/11 05:32:44;;;;;;;6.85;5.38;;;;;;;12.74;68.84;95322.00;5114498;28;20627;-67
2022/05/11 05:35:16;;;;;;;5.93;5.32;;;;;;;12.76;69.16;95337.09;5114809;28;20203;-66
2022/05/11 05:37:44;;;;;;;6.13;4.75;;;;;;;12.81;68.76;95327.72;5115163;28;20195;-66
2022/05/11 05:40:11;;;;;;;5.97;4.70;;;;;;;12.92;68.30;95333.50;5114568;28;20238;-66
2022/05/11 05:42:39;;;;;;;4.80;4.28;;;;;;;13.00;68.25;95338.84;5114421;28;20195;-66
2022/05/11 05:45:07;;;;;;;5.22;4.72;;;;;;;13.04;68.35;95335.34;5114714;28;20200;-66
2022/05/11 05:47:36;;;;;;;5.57;5.07;;;;;;;13.06;68.34;95330.25;5114823;28;20199;-66
2022/05/11 05:50:03;;;;;;;5.88;5.22;;;;;;;13.10;68.54;95340.22;5114694;28;20660;-66
2022/05/11 05:52:30;;;;;;;7.20;5.18;;;;;;;13.18;68.23;95346.72;5114976;28;20192;-66
2022/05/11 05:54:58;;;;;;;5.47;4.65;;;;;;;13.19;67.61;95343.59;5115129;28;20252;-66
2022/05/11 05:57:27;;;;;;;5.95;5.35;;;;;;;13.24;67.60;95343.31;5118592;28;20211;-66
2022/05/11 05:59:54;;;;;;;7.07;5.40;;;;;;;13.33;67.23;95347.88;5119603;28;20183;-66
2022/05/11 06:02:21;;;;;;;4.88;4.47;;;;;;;13.38;68.14;95353.13;5119579;28;20202;-66
2022/05/11 06:04:49;;;;;;;6.22;4.78;;;;;;;13.36;68.62;95345.19;5119611;28;20212;-66
2022/05/11 06:07:18;;;;;;;6.03;5.43;;;;;;;13.38;67.60;95355.88;5118476;28;20184;-66
2022/05/11 06:09:45;;;;;;;7.38;5.47;;;;;;;13.42;67.26;95354.78;5119298;28;20187;-66
2022/05/11 06:12:15;;;;;;;6.20;5.43;;;;;;;13.44;65.73;95358.00;5118815;28;20204;-66
2022/05/11 06:14:42;;;;;;;6.07;4.78;;;;;;;13.51;65.50;95357.34;5119366;28;20194;-66
2022/05/11 06:17:14;;;;;;;6.13;5.13;;;;;;;13.56;65.89;95356.25;5118830;28;20216;-66
2022/05/11 06:19:40;;;;;;;6.65;5.15;;;;;;;13.58;66.32;95365.81;5119030;28;20199;-66
2022/05/11 06:22:07;;;;;;;6.00;4.97;;;;;;;13.60;65.79;95362.66;5118668;28;20202;-66
2022/05/11 06:24:34;;;;;;;4.97;4.47;;;;;;;13.67;65.64;95363.59;5119151;28;20194;-66
2022/05/11 06:27:01;;;;;;;5.03;4.47;;;;;;;13.70;63.13;95362.88;5118013;28;20202;-66
2022/05/11 06:29:29;;;;;;;5.05;4.65;;;;;;;13.79;63.99;95364.63;5119083;28;20196;-66
2022/05/11 06:31:55;;;;;;;5.47;4.97;;;;;;;13.83;64.25;95362.72;5118052;28;20207;-67
2022/05/11 06:34:23;;;;;;;5.57;5.07;;;;;;;13.85;64.22;95361.19;5118929;28;20184;-66
2022/05/11 06:36:50;;;;;;;4.90;4.40;;;;;;;13.89;63.51;95364.81;5118556;28;20631;-66
2022/05/11 06:39:17;;;;;;;5.53;4.88;;;;;;;13.93;62.87;95362.91;5117663;28;20271;-66
2022/05/11 06:41:46;;;;;;;4.90;4.38;;;;;;;13.97;63.14;95365.75;5118893;28;20186;-66
2022/05/11 06:44:13;;;;;;;4.30;3.90;;;;;;;14.00;63.37;95362.25;5118646;28;20192;-66
2022/05/11 06:46:41;;;;;;;6.07;4.80;;;;;;;14.05;62.98;95369.47;5117700;28;20198;-66
2022/05/11 06:49:08;;;;;;;4.32;3.92;;;;;;;14.09;62.12;95360.06;5118685;28;20198;-66
2022/05/11 06:51:35;;;;;;;6.68;3.95;;;;;;;14.15;61.72;95363.31;5118592;28;20266;-66
2022/05/11 06:59:33;;;;;;;5.03;4.32;;;;;;;14.30;60.37;95354.06;5118554;28;20176;-66
2022/05/11 07:02:05;;;;;;;7.15;6.45;;;;;;;14.38;60.61;95352.25;5118517;28;20206;-66
2022/05/11 07:04:35;;;;;;;5.35;3.83;;;;;;;14.45;60.14;95355.94;5117680;28;20266;-66
2022/05/11 07:07:03;;;;;;;4.07;3.70;;;;;;;14.52;59.96;95357.25;5117497;28;20511;-66
2022/05/11 07:09:32;;;;;;;4.30;3.80;;;;;;;14.55;59.22;95360.06;5117973;28;20202;-66
2022/05/11 07:12:19;;;;;;;5.28;4.15;;;;;;;14.58;58.35;95358.53;5118221;28;20211;-66
2022/05/11 07:14:48;;;;;;;6.80;6.18;;;;;;;14.62;58.10;95356.63;5117558;28;20211;-66
2022/05/11 07:17:27;;;;;;;5.35;4.30;;;;;;;14.64;58.16;95352.31;5118044;28;20208;-66
2022/05/11 07:19:54;;;;;;;17.60;6.00;;;;;;;14.69;56.43;95351.19;5117019;28;20446;-66
2022/05/11 07:22:21;;;;;;;22.65;6.50;;;;;;;14.74;55.88;95339.75;5116716;28;20202;-67
2022/05/11 07:24:48;;;;;;;10.15;5.47;;;;;;;14.80;55.90;95341.03;5117999;28;20191;-67
2022/05/11 07:27:14;;;;;;;5.45;4.32;;;;;;;14.87;56.17;95332.81;5116941;28;20195;-70
2022/05/11 07:29:41;;;;;;;9.45;4.40;;;;;;;14.95;56.85;95341.25;5116936;28;20532;-67
2022/05/11 07:32:10;;;;;;;4.22;3.58;;;;;;;15.07;57.89;95341.84;5117568;28;20203;-66
2022/05/11 07:34:39;;;;;;;3.97;3.45;;;;;;;15.13;57.21;95343.09;5117763;28;20315;-66
2022/05/11 07:37:06;;;;;;;3.78;3.42;;;;;;;15.19;57.08;95340.81;5117406;28;20227;-66
2022/05/11 07:39:33;;;;;;;6.07;3.85;;;;;;;15.24;57.35;95334.91;5117387;28;20254;-66
2022/05/11 07:42:00;;;;;;;6.25;4.15;;;;;;;15.30;58.54;95338.97;5116854;28;20199;-66
2022/05/11 07:44:27;;;;;;;5.07;4.10;;;;;;;15.39;57.65;95330.34;5117545;28;20192;-66
2022/05/11 07:46:54;;;;;;;4.00;3.70;;;;;;;15.43;57.89;95327.63;5116642;28;20199;-66
2022/05/11 07:49:22;;;;;;;6.10;3.97;;;;;;;15.53;57.05;95330.53;5116790;28;20187;-66
2022/05/11 07:51:52;;;;;;;5.95;4.22;;;;;;;15.60;57.27;95330.63;5116133;28;20192;-66
2022/05/11 07:54:19;;;;;;;8.02;4.45;;;;;;;15.68;58.15;95323.19;5116444;28;20188;-66
2022/05/11 08:02:11;;;;;;;3.92;3.58;;;;;;;15.98;56.80;95320.34;5104184;28;20203;-66
2022/05/11 08:04:38;;;;;;;4.68;3.72;;;;;;;16.06;57.10;95324.00;5116399;28;20196;-66
2022/05/11 08:07:07;;;;;;;5.68;3.80;;;;;;;16.14;57.83;95320.09;5116470;28;20234;-66
2022/05/11 08:09:33;;;;;;;4.13;3.72;;;;;;;16.23;57.44;95315.03;5115797;28;20615;-66
2022/05/11 08:12:00;;;;;;;4.65;4.03;;;;;;;16.39;58.28;95317.56;5116564;28;20568;-66
2022/05/11 08:14:30;;;;;;;8.38;4.63;;;;;;;16.48;56.95;95309.66;5116191;28;20196;-66
2022/05/11 08:17:00;;;;;;;5.03;3.85;;;;;;;16.65;56.31;95311.00;5116446;28;20253;-66
2022/05/11 08:19:29;;;;;;;5.25;4.75;;;;;;;16.77;57.54;95310.72;5115470;28;20272;-66
2022/05/11 08:21:56;;;;;;;5.80;3.65;;;;;;;16.84;54.85;95307.97;5115699;28;20192;-66
2022/05/11 08:24:26;;;;;;;4.43;4.00;;;;;;;16.92;53.80;95303.28;5116936;28;20187;-66
2022/05/11 08:26:53;;;;;;;8.70;4.60;;;;;;;17.00;54.26;95304.13;5115591;28;20271;-66
2022/05/11 08:34:45;;;;;;;5.07;3.53;;;;;;;17.43;51.42;95299.59;5115244;28;20290;-66
2022/05/11 08:37:12;;;;;;;4.10;3.42;;;;;;;17.49;50.32;95295.19;5116238;28;20193;-66
2022/05/11 08:39:42;;;;;;;4.38;3.35;;;;;;;17.56;53.05;95297.22;5115233;28;20237;-66
2022/05/11 08:42:09;;;;;;;7.25;4.60;;;;;;;17.56;50.87;95297.22;5116188;28;20200;-66
2022/05/11 08:44:39;;;;;;;5.07;4.00;;;;;;;17.61;52.40;95296.88;5116047;28;20187;-66
2022/05/11 08:47:11;;;;;;;5.03;3.70;;;;;;;17.67;51.13;95300.06;5116276;28;20183;-66
2022/05/11 08:49:50;;;;;;;3.97;3.10;;;;;;;17.71;49.58;95298.06;5115864;28;20191;-66
2022/05/11 08:52:26;;;;;;;3.25;3.05;;;;;;;17.82;49.07;95303.72;5115962;28;20195;-66
2022/05/11 08:55:00;;;;;;;3.40;2.97;;;;;;;17.98;49.60;95296.59;5116607;28;20215;-66
2022/05/11 08:57:28;;;;;;;3.50;3.10;;;;;;;18.06;49.91;95302.19;5115044;28;20202;-66
2022/05/11 08:59:59;;;;;;;3.63;3.25;;;;;;;18.12;49.31;95300.59;5116110;28;20220;-66
2022/05/11 09:02:29;;;;;;;3.45;3.15;;;;;;;18.28;50.06;95301.81;5115554;28;20538;-66
2022/05/11 09:04:58;;;;;;;4.63;3.30;;;;;;;18.43;50.79;95297.06;5115166;28;20199;-66
2022/05/11 09:07:25;;;;;;;4.00;3.30;;;;;;;18.50;49.10;95294.25;5115364;28;20202;-66
2022/05/11 09:09:52;;;;;;;3.25;2.95;;;;;;;18.69;47.86;95289.47;5114684;28;20191;-66
2022/05/11 09:12:21;;;;;;;4.43;3.35;;;;;;;18.82;47.38;95296.28;5115389;28;20271;-66
2022/05/11 09:14:51;;;;;;;3.42;3.10;;;;;;;18.94;46.21;95292.25;5115402;28;20237;-66
2022/05/11 09:17:24;;;;;;;5.22;3.95;;;;;;;19.04;50.51;95291.47;5115137;28;20210;-66
2022/05/11 09:20:00;;;;;;;6.90;4.35;;;;;;;19.17;48.04;95295.44;5114881;28;20208;-66
2022/05/11 09:22:31;;;;;;;9.27;4.60;;;;;;;19.26;49.39;95289.41;5115126;28;20203;-66
2022/05/11 09:25:00;;;;;;;21.25;7.43;;;;;;;19.42;49.36;95286.16;5114727;28;20286;-66
2022/05/11 09:27:30;;;;;;;23.38;7.63;;;;;;;19.47;47.74;95282.94;5114745;28;20191;-66
2022/05/11 09:30:01;;;;;;;20.90;7.35;;;;;;;19.51;48.20;95280.13;5115737;28;20281;-66
2022/05/11 09:32:32;;;;;;;112.03;30.20;;;;;;;19.59;47.95;95278.91;5112751;28;20535;-66
2022/05/11 09:35:18;;;;;;;230.10;57.15;;;;;;;19.68;48.83;95276.47;5115387;28;20176;-66
2022/05/11 09:37:46;;;;;;;14.40;6.47;;;;;;;19.70;49.74;95272.06;5115063;28;20188;-66
2022/05/11 09:40:17;;;;;;;10.80;8.65;;;;;;;19.77;44.69;95279.66;5114396;28;20223;-66
2022/05/11 09:42:53;;;;;;;5.45;4.15;;;;;;;19.84;44.31;95278.81;5115299;28;20214;-67
2022/05/11 09:45:42;;;;;;;4.18;3.38;;;;;;;19.84;46.14;95276.81;5115196;28;20219;-67
2022/05/11 09:48:18;;;;;;;5.78;4.80;;;;;;;19.97;45.74;95279.91;5115691;28;20191;-66
2022/05/11 09:50:47;;;;;;;4.30;4.00;;;;;;;20.24;48.14;95268.19;5115078;28;20614;-66
2022/05/11 09:53:32;;;;;;;193.88;41.85;;;;;;;20.47;46.28;95267.59;5114291;28;20226;-66
2022/05/11 09:56:21;;;;;;;162.68;35.20;;;;;;;20.54;45.31;95264.75;5115776;28;20210;-66
2022/05/11 09:58:49;;;;;;;19.30;6.80;;;;;;;20.53;43.35;95263.19;5115069;28;20630;-66
2022/05/11 10:01:18;;;;;;;7.90;4.55;;;;;;;20.57;42.60;95263.94;5114625;28;20200;-66
2022/05/11 10:03:52;;;;;;;13.10;5.43;;;;;;;20.63;42.19;95253.91;5114487;28;20196;-66
2022/05/11 10:06:20;;;;;;;11.82;7.50;;;;;;;20.69;42.69;95252.22;5114351;28;20240;-66
2022/05/11 10:08:49;;;;;;;6.32;4.82;;;;;;;20.91;43.37;95261.22;5114659;28;20200;-66
2022/05/11 10:11:18;;;;;;;3.63;3.33;;;;;;;20.97;43.53;95237.13;5115442;28;20279;-66
2022/05/11 10:13:52;;;;;;;4.82;3.50;;;;;;;21.06;42.51;95245.06;5114427;28;20195;-67
2022/05/11 10:22:10;;;;;;;3.05;2.80;;;;;;;21.06;43.22;95243.06;5114739;28;20238;-66
2022/05/11 10:24:47;;;;;;;3.30;2.97;;;;;;;21.20;40.75;95230.09;5115212;28;20184;-66
2022/05/11 10:27:19;;;;;;;3.13;2.70;;;;;;;21.23;39.50;95230.03;5115190;28;20207;-66
2022/05/11 10:29:56;;;;;;;3.13;2.92;;;;;;;21.27;41.81;95233.59;5115214;28;20187;-66
2022/05/11 10:32:28;;;;;;;3.42;3.13;;;;;;;21.24;39.65;95233.63;5114612;28;20198;-66
2022/05/11 10:35:03;;;;;;;4.38;3.97;;;;;;;21.15;40.02;95234.16;5114927;28;20563;-66
2022/05/11 10:37:36;;;;;;;5.22;4.20;;;;;;;21.01;41.53;95234.31;5115106;28;20183;-66
2022/05/11 10:40:17;;;;;;;4.05;3.55;;;;;;;20.84;39.42;95238.88;5115719;28;20242;-66
2022/05/11 10:42:49;;;;;;;5.68;5.18;;;;;;;20.66;40.73;95233.44;5118512;28;20206;-66
2022/05/11 10:45:20;;;;;;;4.88;3.35;;;;;;;20.51;40.33;95234.78;5118089;28;20199;-67
2022/05/11 10:48:03;;;;;;;7.47;3.85;;;;;;;20.38;39.44;95231.66;5117552;28;20195;-66
2022/05/11 10:50:36;;;;;;;3.05;2.80;;;;;;;20.51;40.38;95241.16;5118627;28;20278;-66
2022/05/11 10:53:27;;;;;;;3.08;2.88;;;;;;;20.72;40.31;95236.59;5118755;28;20207;-66
2022/05/11 10:56:00;;;;;;;3.15;2.45;;;;;;;20.80;40.34;95230.50;5107415;28;20234;-66
2022/05/11 10:58:43;;;;;;;3.80;3.20;;;;;;;20.75;40.34;95230.16;5118306;28;20184;-66
2022/05/11 11:01:13;;;;;;;3.30;3.00;;;;;;;20.80;41.05;95233.28;5118073;28;20206;-66
2022/05/11 11:04:09;;;;;;;3.92;3.30;;;;;;;20.73;40.39;95236.16;5118381;28;20180;-66
2022/05/11 11:09:35;;;;;;;6.75;5.75;;;;;;;20.66;41.53;95251.06;5117335;28;20538;-66
2022/05/11 11:12:21;;;;;;;7.32;5.22;;;;;;;20.52;43.32;95256.78;5117325;28;20199;-66
2022/05/11 11:14:50;;;;;;;5.35;3.95;;;;;;;20.31;43.40;95254.91;5117839;28;20191;-67
2022/05/11 11:17:21;;;;;;;6.35;5.18;;;;;;;20.07;42.75;95253.88;5117262;28;20184;-66
2022/05/11 11:19:53;;;;;;;5.05;4.40;;;;;;;19.89;43.74;95256.78;5117938;28;20199;-66
2022/05/11 11:22:20;;;;;;;3.72;3.42;;;;;;;19.63;44.24;95255.31;5117250;28;20198;-66
2022/05/11 11:25:22;;;;;;;5.38;3.65;;;;;;;19.41;44.89;95254.59;5118157;28;20202;-66
2022/05/11 11:28:08;;;;;;;5.10;4.55;;;;;;;19.13;45.48;95263.06;5116824;28;20204;-66
2022/05/11 11:30:35;;;;;;;18.10;16.30;;;;;;;19.02;46.10;95260.31;5117143;28;20192;-66
2022/05/11 11:33:23;;;;;;;12.07;11.10;;;;;;;19.08;46.97;95261.50;5117729;28;20207;-66
2022/05/11 11:35:55;;;;;;;6.25;5.65;;;;;;;19.30;45.20;95262.22;5117857;28;20180;-66
2022/05/11 11:38:25;;;;;;;4.90;4.38;;;;;;;19.57;46.05;95265.34;5116824;28;20203;-66
2022/05/11 11:41:12;;;;;;;4.53;3.75;;;;;;;20.12;44.75;95267.47;5116157;28;20239;-66
2022/05/11 11:43:53;;;;;;;3.50;3.10;;;;;;;20.37;43.17;95263.66;5116791;28;20581;-66
2022/05/11 11:46:31;;;;;;;3.20;3.00;;;;;;;20.54;43.07;95265.56;5117015;28;20206;-66
2022/05/11 11:49:06;;;;;;;4.03;3.60;;;;;;;20.48;43.31;95274.78;5116801;28;20223;-66
2022/05/11 11:51:50;;;;;;;3.85;3.15;;;;;;;20.58;43.75;95274.72;5116555;28;20191;-66
2022/05/11 11:54:28;;;;;;;3.53;3.22;;;;;;;20.33;42.11;95274.09;5115699;28;20206;-66
2022/05/11 11:56:58;;;;;;;3.80;3.50;;;;;;;20.11;43.29;95274.25;5116952;28;20199;-66
2022/05/11 11:59:42;;;;;;;4.65;4.07;;;;;;;19.99;44.15;95274.72;5116336;28;20218;-66
2022/05/11 12:02:15;;;;;;;3.50;3.30;;;;;;;19.91;44.34;95275.97;5117093;28;20294;-66
2022/05/11 12:04:46;;;;;;;4.10;3.20;;;;;;;19.84;44.63;95276.81;5116955;28;20211;-66
2022/05/11 12:15:35;;;;;;;3.70;3.40;;;;;;;19.66;43.97;95290.88;5115840;28;20192;-66
2022/05/11 12:18:02;;;;;;;3.85;3.33;;;;;;;19.63;44.95;95297.28;5116824;28;20204;-66
2022/05/11 12:20:44;;;;;;;4.03;2.75;;;;;;;19.61;45.86;95294.09;5116305;28;20670;-66
2022/05/11 12:23:18;;;;;;;4.20;2.90;;;;;;;19.58;46.51;95292.09;5115718;28;20195;-66
2022/05/11 12:26:00;;;;;;;2.92;2.63;;;;;;;19.54;47.58;95277.31;5116533;28;20521;-66
2022/05/11 12:28:29;;;;;;;3.33;3.10;;;;;;;19.49;47.39;95277.72;5116087;28;20235;-66
2022/05/11 12:30:57;;;;;;;3.70;2.88;;;;;;;19.41;47.62;95274.16;5116202;28;20192;-66
2022/05/11 12:33:27;;;;;;;3.88;2.95;;;;;;;19.37;46.65;95269.78;5115501;28;20630;-66